| time (UTC) | temp F | wind direction | speed knots | gust knots | rain 1hr in | rain 24hr in | rain mn in | humidity % | barometer mb |
| 20260906221015 | 85 | 293 | 4.3 | 9.6 | 0.00 | 0.00 | 0.00 | 22 | 1019.0 |
| 20260906220516 | 86 | 270 | 1.7 | 7.8 | 0.00 | 0.00 | 0.00 | 23 | 1019.1 |
| 20260906220055 | 85 | 270 | 2.6 | 7.0 | 0.00 | 0.00 | 0.00 | 24 | 1019.2 |
| 20260906215515 | 85 | 293 | 3.5 | 7.0 | 0.00 | 0.00 | 0.00 | 23 | 1019.3 |
| 20260906215035 | 85 | 203 | 1.7 | 5.2 | 0.00 | 0.00 | 0.00 | 23 | 1019.3 |
| 20260906214536 | 85 | 293 | 1.7 | 6.1 | 0.00 | 0.00 | 0.00 | 23 | 1019.3 |
| 20260906214016 | 85 | 45 | 2.6 | 5.2 | 0.00 | 0.00 | 0.00 | 22 | 1019.4 |
| 20260906213515 | 85 | 45 | 1.7 | 3.5 | 0.00 | 0.00 | 0.00 | 23 | 1019.4 |
| 20260906213015 | 84 | 68 | 0.9 | 3.5 | 0.00 | 0.00 | 0.00 | 22 | 1019.5 |
| 20260906212515 | 84 | 113 | 1.7 | 3.5 | 0.00 | 0.00 | 0.00 | 23 | 1019.5 |
| 20260906212016 | 84 | 0.0 | 0.0 | 0.00 | 0.00 | 0.00 | 23 | 1019.6 | |
| 20260906211515 | 84 | 68 | 0.9 | 1.7 | 0.00 | 0.00 | 0.00 | 22 | 1019.8 |
| 20260906211015 | 84 | 68 | 0.9 | 1.7 | 0.00 | 0.00 | 0.00 | 23 | 1019.9 |
| 20260906210515 | 85 | 68 | 2.6 | 5.2 | 0.00 | 0.00 | 0.00 | 22 | 1019.8 |
| 20260906210015 | 86 | 113 | 2.6 | 7.0 | 0.00 | 0.00 | 0.00 | 22 | 1020.0 |
| 20260906205515 | 88 | 135 | 1.7 | 3.5 | 0.00 | 0.00 | 0.00 | 21 | 1020.0 |
| 20260906205016 | 89 | 68 | 1.7 | 9.6 | 0.00 | 0.00 | 0.00 | 20 | 1020.0 |
| 20260906204515 | 89 | 68 | 1.7 | 6.1 | 0.00 | 0.00 | 0.00 | 20 | 1020.0 |
| 20260906204015 | 89 | 113 | 2.6 | 7.8 | 0.00 | 0.00 | 0.00 | 20 | 1020.1 |
| 20260906203515 | 89 | 203 | 0.9 | 3.5 | 0.00 | 0.00 | 0.00 | 20 | 1020.1 |
| 20260906203015 | 88 | 45 | 1.7 | 6.1 | 0.00 | 0.00 | 0.00 | 20 | 1020.1 |
| 20260906202515 | 88 | 68 | 3.5 | 7.8 | 0.00 | 0.00 | 0.00 | 20 | 1020.2 |
| 20260906202015 | 88 | 158 | 2.6 | 7.8 | 0.00 | 0.00 | 0.00 | 21 | 1020.4 |
| 20260906201515 | 88 | 68 | 2.6 | 9.6 | 0.00 | 0.00 | 0.00 | 20 | 1020.5 |
| 20260906201016 | 88 | 203 | 1.7 | 4.3 | 0.00 | 0.00 | 0.00 | 22 | 1020.7 |
| 20260906200516 | 87 | 180 | 2.6 | 5.2 | 0.00 | 0.00 | 0.00 | 21 | 1020.7 |
| 20260906200015 | 87 | 135 | 1.7 | 3.5 | 0.00 | 0.00 | 0.00 | 21 | 1020.7 |
| 20260906195515 | 87 | 293 | 2.6 | 6.1 | 0.00 | 0.00 | 0.00 | 20 | 1020.7 |
| 20260906195016 | 87 | 293 | 3.5 | 7.8 | 0.00 | 0.00 | 0.00 | 21 | 1020.7 |
| 20260906194515 | 86 | 203 | 1.7 | 4.3 | 0.00 | 0.00 | 0.00 | 22 | 1020.8 |
| 20260906194015 | 86 | 248 | 2.6 | 6.1 | 0.00 | 0.00 | 0.00 | 22 | 1020.9 |
| 20260906193535 | 86 | 203 | 2.6 | 7.0 | 0.00 | 0.00 | 0.00 | 22 | 1020.9 |
| 20260906193015 | 86 | 203 | 3.5 | 7.0 | 0.00 | 0.00 | 0.00 | 22 | 1020.9 |
| 20260906192515 | 87 | 270 | 1.7 | 4.3 | 0.00 | 0.00 | 0.00 | 21 | 1021.0 |
| 20260906192015 | 86 | 225 | 1.7 | 4.3 | 0.00 | 0.00 | 0.00 | 22 | 1021.1 |
| 20260906191515 | 86 | 45 | 1.7 | 3.5 | 0.00 | 0.00 | 0.00 | 21 | 1021.2 |
| 20260906191036 | 85 | 315 | 1.7 | 4.3 | 0.00 | 0.00 | 0.00 | 22 | 1021.3 |
| 20260906190515 | 85 | 293 | 1.7 | 6.1 | 0.00 | 0.00 | 0.00 | 21 | 1021.4 |
| 20260906190035 | 85 | 293 | 2.6 | 7.8 | 0.00 | 0.00 | 0.00 | 21 | 1021.6 |
| 20260906185516 | 84 | 158 | 2.6 | 5.2 | 0.00 | 0.00 | 0.00 | 22 | 1021.8 |
| 20260906185015 | 84 | 315 | 1.7 | 6.1 | 0.00 | 0.00 | 0.00 | 20 | 1021.9 |
| 20260906184515 | 85 | 293 | 3.5 | 7.8 | 0.00 | 0.00 | 0.00 | 20 | 1021.9 |
| 20260906184015 | 84 | 113 | 1.7 | 3.5 | 0.00 | 0.00 | 0.00 | 20 | 1022.0 |
| 20260906183515 | 84 | 293 | 1.7 | 3.5 | 0.00 | 0.00 | 0.00 | 21 | 1022.1 |
| 20260906183015 | 84 | 203 | 2.6 | 5.2 | 0.00 | 0.00 | 0.00 | 20 | 1022.2 |
| 20260906182553 | 84 | 270 | 2.6 | 8.7 | 0.00 | 0.00 | 0.00 | 20 | 1022.3 |
| 20260906182015 | 83 | 113 | 2.6 | 6.1 | 0.00 | 0.00 | 0.00 | 21 | 1022.4 |
| 20260906181516 | 83 | 270 | 1.7 | 5.2 | 0.00 | 0.00 | 0.00 | 21 | 1022.5 |
| 20260906181015 | 83 | 293 | 3.5 | 7.0 | 0.00 | 0.00 | 0.00 | 20 | 1022.6 |
| 20260906180515 | 82 | 293 | 3.5 | 7.0 | 0.00 | 0.00 | 0.00 | 19 | 1022.8 |
| 20260906180015 | 82 | 293 | 2.6 | 6.1 | 0.00 | 0.00 | 0.00 | 21 | 1022.9 |
| 20260906175515 | 81 | 0 | 0.9 | 4.3 | 0.00 | 0.00 | 0.00 | 24 | 1022.9 |
| 20260906175016 | 80 | 270 | 2.6 | 7.8 | 0.00 | 0.00 | 0.00 | 24 | 1022.9 |
| 20260906174515 | 79 | 135 | 1.7 | 4.3 | 0.00 | 0.00 | 0.00 | 26 | 1023.0 |
| 20260906174015 | 79 | 180 | 1.7 | 4.3 | 0.00 | 0.00 | 0.00 | 30 | 1023.1 |
| 20260906173515 | 78 | 45 | 0.9 | 3.5 | 0.00 | 0.00 | 0.00 | 35 | 1023.3 |
| 20260906173015 | 77 | 180 | 0.9 | 3.5 | 0.00 | 0.00 | 0.00 | 34 | 1023.4 |
| 20260906172555 | 76 | 180 | 1.7 | 2.6 | 0.00 | 0.00 | 0.00 | 35 | 1023.6 |
| 20260906172035 | 76 | 203 | 0.9 | 3.5 | 0.00 | 0.00 | 0.00 | 36 | 1023.6 |
| 20260906171555 | 75 | 0.0 | 3.5 | 0.00 | 0.00 | 0.00 | 39 | 1023.7 | |
| 20260906171018 | 74 | 0.0 | 2.6 | 0.00 | 0.00 | 0.00 | 38 | 1024.0 | |
| 20260906170517 | 73 | 203 | 0.9 | 2.6 | 0.00 | 0.00 | 0.00 | 41 | 1024.0 |
| 20260906170017 | 72 | 203 | 0.9 | 3.5 | 0.00 | 0.00 | 0.00 | 43 | 1024.1 |
| 20260906165517 | 71 | 180 | 0.9 | 3.5 | 0.00 | 0.00 | 0.00 | 44 | 1024.1 |
| 20260906165017 | 70 | 158 | 0.9 | 3.5 | 0.00 | 0.00 | 0.00 | 44 | 1024.1 |
| 20260906164517 | 69 | 0.0 | 0.0 | 0.00 | 0.00 | 0.00 | 46 | 1024.2 | |
| 20260906164017 | 68 | 225 | 0.9 | 2.6 | 0.00 | 0.00 | 0.00 | 47 | 1024.3 |
| 20260906163517 | 67 | 225 | 0.9 | 2.6 | 0.00 | 0.00 | 0.00 | 48 | 1024.4 |
| 20260906163017 | 66 | 225 | 0.9 | 3.5 | 0.00 | 0.00 | 0.00 | 51 | 1024.5 |
| 20260906162517 | 65 | 248 | 0.9 | 2.6 | 0.00 | 0.00 | 0.00 | 54 | 1024.5 |
| 20260906162017 | 64 | 315 | 0.9 | 2.6 | 0.00 | 0.00 | 0.00 | 57 | 1024.5 |
| 20260906161537 | 62 | 0.0 | 2.6 | 0.00 | 0.00 | 0.00 | 58 | 1024.5 | |
| 20260906161018 | 61 | 0.0 | 1.7 | 0.00 | 0.00 | 0.00 | 58 | 1024.6 | |
| 20260906160517 | 60 | 0.0 | 0.0 | 0.00 | 0.00 | 0.00 | 62 | 1024.5 | |
| 20260906160017 | 58 | 0.0 | 0.0 | 0.00 | 0.00 | 0.00 | 67 | 1024.7 | |
| 20260906155516 | 57 | 0.0 | 1.7 | 0.00 | 0.00 | 0.00 | 68 | 1024.7 | |
| 20260906155017 | 57 | 0.0 | 1.7 | 0.00 | 0.00 | 0.00 | 68 | 1024.7 | |
| 20260906154517 | 56 | 0.0 | 0.0 | 0.00 | 0.00 | 0.00 | 71 | 1024.8 | |
| 20260906154016 | 56 | 0.0 | 0.0 | 0.00 | 0.00 | 0.00 | 72 | 1024.6 | |
| 20260906153537 | 54 | 0.0 | 0.0 | 0.00 | 0.00 | 0.00 | 74 | 1024.7 | |
| 20260906153018 | 54 | 0.0 | 0.9 | 0.00 | 0.00 | 0.00 | 76 | 1024.6 | |
| 20260906152517 | 53 | 0.0 | 0.9 | 0.00 | 0.00 | 0.00 | 78 | 1024.7 | |
| 20260906152016 | 52 | 0.0 | 0.0 | 0.00 | 0.00 | 0.00 | 80 | 1024.7 | |
| 20260906151516 | 51 | 0.0 | 0.0 | 0.00 | 0.00 | 0.00 | 83 | 1024.8 | |
| 20260906151036 | 50 | 0.0 | 0.0 | 0.00 | 0.00 | 0.00 | 85 | 1025.0 | |
| 20260906150517 | 49 | 0.0 | 0.0 | 0.00 | 0.00 | 0.00 | 86 | 1025.0 | |
| 20260906150037 | 49 | 0.0 | 0.0 | 0.00 | 0.00 | 0.00 | 87 | 1025.0 | |
| 20260906145516 | 48 | 0.0 | 0.0 | 0.00 | 0.00 | 0.00 | 89 | 1025.0 | |
| 20260906145016 | 48 | 0.0 | 0.0 | 0.00 | 0.00 | 0.00 | 89 | 1025.0 | |
| 20260906144517 | 47 | 0.0 | 0.0 | 0.00 | 0.00 | 0.00 | 89 | 1025.0 | |
| 20260906144017 | 47 | 0.0 | 0.0 | 0.00 | 0.00 | 0.00 | 90 | 1025.0 | |
| 20260906143517 | 46 | 0.0 | 0.0 | 0.00 | 0.00 | 0.00 | 90 | 1025.0 | |
| 20260906143016 | 46 | 0.0 | 0.0 | 0.00 | 0.00 | 0.00 | 90 | 1025.1 | |
| 20260906142538 | 46 | 0.0 | 0.9 | 0.00 | 0.00 | 0.00 | 90 | 1025.0 | |
| 20260906142017 | 45 | 0.0 | 0.0 | 0.00 | 0.00 | 0.00 | 91 | 1025.1 | |
| 20260906141516 | 45 | 0.0 | 0.0 | 0.00 | 0.00 | 0.00 | 91 | 1025.2 | |
| 20260906141016 | 45 | 0.0 | 0.0 | 0.00 | 0.00 | 0.00 | 91 | 1025.1 | |
| 20260906140516 | 44 | 0.0 | 1.7 | 0.00 | 0.00 | 0.00 | 91 | 1025.1 | |
| 20260906140037 | 44 | 0.0 | 0.0 | 0.00 | 0.00 | 0.00 | 91 | 1025.1 | |
| 20260906135516 | 44 | 0.0 | 0.9 | 0.00 | 0.00 | 0.00 | 90 | 1024.9 | |
| 20260906135016 | 43 | 0.0 | 0.0 | 0.00 | 0.00 | 0.00 | 90 | 1025.0 | |
| 20260906134516 | 43 | 0.0 | 0.0 | 0.00 | 0.00 | 0.00 | 90 | 1025.0 | |
| 20260906134016 | 43 | 0.0 | 0.0 | 0.00 | 0.00 | 0.00 | 89 | 1025.0 | |
| 20260906133536 | 43 | 0.0 | 0.0 | 0.00 | 0.00 | 0.00 | 89 | 1024.9 | |
| 20260906133017 | 43 | 0.0 | 0.0 | 0.00 | 0.00 | 0.00 | 89 | 1024.8 | |
| 20260906132537 | 43 | 0.0 | 0.0 | 0.00 | 0.00 | 0.00 | 89 | 1024.8 | |
| 20260906132016 | 43 | 0.0 | 0.0 | 0.00 | 0.00 | 0.00 | 89 | 1024.7 | |
| 20260906131516 | 43 | 0.0 | 0.9 | 0.00 | 0.00 | 0.00 | 89 | 1024.5 | |
| 20260906131017 | 42 | 0.0 | 0.0 | 0.00 | 0.00 | 0.00 | 89 | 1024.6 | |
| 20260906130516 | 42 | 0.0 | 0.0 | 0.00 | 0.00 | 0.00 | 88 | 1024.5 | |
| 20260906130016 | 42 | 0.0 | 0.0 | 0.00 | 0.00 | 0.00 | 88 | 1024.6 | |
| 20260906125536 | 42 | 0.0 | 0.9 | 0.00 | 0.00 | 0.00 | 88 | 1024.5 | |
| 20260906125017 | 43 | 0.0 | 0.9 | 0.00 | 0.00 | 0.00 | 88 | 1024.5 | |
| 20260906124517 | 43 | 0.0 | 0.0 | 0.00 | 0.00 | 0.00 | 88 | 1024.5 | |
| 20260906124016 | 43 | 0.0 | 0.9 | 0.00 | 0.00 | 0.00 | 88 | 1024.4 | |
| 20260906123516 | 43 | 0.0 | 0.0 | 0.00 | 0.00 | 0.00 | 88 | 1024.5 | |
| 20260906123021 | 43 | 0.0 | 0.0 | 0.00 | 0.00 | 0.00 | 88 | 1024.4 | |
| 20260906122516 | 43 | 0.0 | 0.0 | 0.00 | 0.00 | 0.00 | 88 | 1024.5 | |
| 20260906122037 | 43 | 0.0 | 0.0 | 0.00 | 0.00 | 0.00 | 88 | 1024.5 | |
| 20260906121537 | 43 | 0.0 | 0.0 | 0.00 | 0.00 | 0.00 | 88 | 1024.4 | |
| 20260906121016 | 43 | 68 | 1.7 | 2.6 | 0.00 | 0.00 | 0.00 | 87 | 1024.5 |
| 20260906120516 | 43 | 68 | 0.9 | 1.7 | 0.00 | 0.00 | 0.00 | 87 | 1024.3 |
| 20260906120036 | 43 | 0.0 | 0.0 | 0.00 | 0.00 | 0.00 | 87 | 1024.3 | |
| 20260906115516 | 43 | 0.0 | 0.0 | 0.00 | 0.00 | 0.00 | 87 | 1024.3 | |
| 20260906115057 | 43 | 0.0 | 0.0 | 0.00 | 0.00 | 0.00 | 87 | 1024.3 | |
| 20260906114516 | 43 | 0.0 | 0.0 | 0.00 | 0.00 | 0.00 | 87 | 1024.4 | |
| 20260906114017 | 43 | 0.0 | 0.9 | 0.00 | 0.00 | 0.00 | 87 | 1024.3 | |
| 20260906113516 | 43 | 68 | 0.9 | 1.7 | 0.00 | 0.00 | 0.00 | 87 | 1024.1 |
| 20260906113016 | 43 | 0.0 | 2.6 | 0.00 | 0.00 | 0.00 | 86 | 1024.2 | |
| 20260906112516 | 43 | 68 | 1.7 | 2.6 | 0.00 | 0.00 | 0.00 | 86 | 1024.1 |
| 20260906112016 | 43 | 68 | 0.9 | 2.6 | 0.00 | 0.00 | 0.00 | 86 | 1024.1 |
| 20260906111517 | 43 | 0.0 | 2.6 | 0.00 | 0.00 | 0.00 | 86 | 1024.1 | |
| 20260906111016 | 44 | 0.0 | 0.0 | 0.00 | 0.00 | 0.00 | 85 | 1024.1 | |
| 20260906110516 | 44 | 0.0 | 0.0 | 0.00 | 0.00 | 0.00 | 85 | 1024.1 | |
| 20260906110016 | 44 | 0.0 | 0.0 | 0.00 | 0.00 | 0.00 | 85 | 1024.2 | |
| 20260906105517 | 44 | 0.0 | 0.0 | 0.00 | 0.00 | 0.00 | 85 | 1024.1 | |
| 20260906105056 | 44 | 0.0 | 0.0 | 0.00 | 0.00 | 0.00 | 85 | 1023.9 | |
| 20260906104516 | 44 | 0.0 | 0.0 | 0.00 | 0.00 | 0.00 | 84 | 1024.0 | |
| 20260906104036 | 44 | 0.0 | 0.0 | 0.00 | 0.00 | 0.00 | 84 | 1024.1 | |
| 20260906103517 | 44 | 0.0 | 0.0 | 0.00 | 0.00 | 0.00 | 84 | 1024.1 | |
| 20260906103016 | 44 | 0.0 | 0.0 | 0.00 | 0.00 | 0.00 | 84 | 1024.1 | |
| 20260906102516 | 44 | 0.0 | 0.0 | 0.00 | 0.00 | 0.00 | 83 | 1024.1 | |
| 20260906102016 | 45 | 0.0 | 0.0 | 0.00 | 0.00 | 0.00 | 83 | 1024.0 | |
| 20260906101516 | 45 | 0.0 | 0.0 | 0.00 | 0.00 | 0.00 | 83 | 1024.0 | |
| 20260906101017 | 45 | 0.0 | 0.0 | 0.00 | 0.00 | 0.00 | 83 | 1024.0 | |
| 20260906100516 | 45 | 0.0 | 0.0 | 0.00 | 0.00 | 0.00 | 83 | 1023.9 | |
| 20260906100016 | 45 | 0.0 | 0.0 | 0.00 | 0.00 | 0.00 | 83 | 1023.9 | |
| 20260906095516 | 45 | 0.0 | 0.0 | 0.00 | 0.00 | 0.00 | 83 | 1023.9 | |
| 20260906095016 | 46 | 0.0 | 0.0 | 0.00 | 0.00 | 0.00 | 82 | 1023.9 | |
| 20260906094516 | 46 | 0.0 | 0.0 | 0.00 | 0.00 | 0.00 | 82 | 1023.8 | |
| 20260906094016 | 46 | 0.0 | 0.0 | 0.00 | 0.00 | 0.00 | 82 | 1023.8 | |
| 20260906093617 | 46 | 0.0 | 0.0 | 0.00 | 0.00 | 0.00 | 82 | 1023.8 | |
| 20260906093016 | 46 | 0.0 | 0.0 | 0.00 | 0.00 | 0.00 | 81 | 1023.8 | |
| 20260906092516 | 46 | 0.0 | 0.0 | 0.00 | 0.00 | 0.00 | 82 | 1023.8 | |
| 20260906092016 | 46 | 0.0 | 0.0 | 0.00 | 0.00 | 0.00 | 81 | 1023.9 | |
| 20260906091516 | 47 | 0.0 | 0.0 | 0.00 | 0.00 | 0.00 | 81 | 1023.7 | |
| 20260906091016 | 47 | 0.0 | 0.0 | 0.00 | 0.00 | 0.00 | 81 | 1023.8 | |
| 20260906090537 | 47 | 0.0 | 0.0 | 0.00 | 0.00 | 0.00 | 81 | 1023.7 | |
| 20260906090016 | 47 | 0.0 | 0.0 | 0.00 | 0.00 | 0.00 | 80 | 1023.8 | |
| 20260906085536 | 47 | 0.0 | 0.0 | 0.00 | 0.00 | 0.00 | 80 | 1023.8 | |
| 20260906085016 | 48 | 0.0 | 0.0 | 0.00 | 0.00 | 0.00 | 80 | 1023.8 | |
| 20260906084516 | 48 | 0.0 | 0.0 | 0.00 | 0.00 | 0.00 | 80 | 1023.6 | |
| 20260906084037 | 48 | 0.0 | 0.0 | 0.00 | 0.00 | 0.00 | 80 | 1023.6 | |
| 20260906083516 | 48 | 0.0 | 0.0 | 0.00 | 0.00 | 0.00 | 79 | 1023.6 | |
| 20260906083016 | 48 | 0.0 | 0.0 | 0.00 | 0.00 | 0.00 | 80 | 1023.6 | |
| 20260906082516 | 49 | 0.0 | 0.0 | 0.00 | 0.00 | 0.00 | 79 | 1023.6 | |
| 20260906082016 | 49 | 0.0 | 0.0 | 0.00 | 0.00 | 0.00 | 79 | 1023.5 | |
| 20260906081516 | 49 | 0.0 | 0.0 | 0.00 | 0.00 | 0.00 | 79 | 1023.5 | |
| 20260906081016 | 49 | 0.0 | 0.0 | 0.00 | 0.00 | 0.00 | 78 | 1023.5 | |
| 20260906080516 | 49 | 0.0 | 0.0 | 0.00 | 0.00 | 0.00 | 78 | 1023.6 | |
| 20260906080016 | 49 | 0.0 | 0.0 | 0.00 | 0.00 | 0.00 | 78 | 1023.6 | |
| 20260906075516 | 49 | 0.0 | 0.0 | 0.00 | 0.00 | 0.00 | 78 | 1023.5 | |
| 20260906075016 | 49 | 0.0 | 0.0 | 0.00 | 0.00 | 0.00 | 78 | 1023.6 | |
| 20260906074516 | 50 | 0.0 | 0.0 | 0.00 | 0.00 | 0.00 | 79 | 1023.6 | |
| 20260906074016 | 50 | 0.0 | 0.0 | 0.00 | 0.00 | 0.00 | 79 | 1023.6 | |
| 20260906073517 | 50 | 0.0 | 0.0 | 0.00 | 0.00 | 0.00 | 79 | 1023.6 | |
| 20260906073016 | 50 | 0.0 | 0.0 | 0.00 | 0.00 | 0.00 | 78 | 1023.6 | |
| 20260906072516 | 50 | 0.0 | 0.0 | 0.00 | 0.00 | 0.00 | 79 | 1023.6 | |
| 20260906072016 | 50 | 0.0 | 0.0 | 0.00 | 0.00 | 0.00 | 78 | 1023.6 | |
| 20260906071537 | 50 | 0.0 | 0.0 | 0.00 | 0.00 | 0.00 | 77 | 1023.5 | |
| 20260906071016 | 50 | 0.0 | 0.0 | 0.00 | 0.00 | 0.00 | 76 | 1023.4 | |
| 20260906070516 | 50 | 0.0 | 0.0 | 0.00 | 0.00 | 0.00 | 76 | 1023.5 | |
| 20260906070016 | 50 | 0.0 | 0.0 | 0.00 | 0.00 | 0.00 | 75 | 1023.6 | |
| 20260906065516 | 50 | 0.0 | 0.0 | 0.00 | 0.00 | 0.00 | 75 | 1023.4 | |
| 20260906065016 | 50 | 0.0 | 0.0 | 0.00 | 0.00 | 0.00 | 75 | 1023.5 | |
| 20260906064536 | 50 | 0.0 | 0.0 | 0.00 | 0.00 | 0.00 | 75 | 1023.6 | |
| 20260906064016 | 50 | 0.0 | 0.0 | 0.00 | 0.00 | 0.00 | 75 | 1023.4 | |
| 20260906063516 | 51 | 0.0 | 0.0 | 0.00 | 0.00 | 0.00 | 75 | 1023.4 | |
| 20260906063017 | 51 | 0.0 | 0.0 | 0.00 | 0.00 | 0.00 | 74 | 1023.4 | |
| 20260906062515 | 51 | 0.0 | 0.0 | 0.00 | 0.00 | 0.00 | 73 | 1023.4 | |
| 20260906062016 | 51 | 0.0 | 0.0 | 0.00 | 0.00 | 0.00 | 73 | 1023.4 | |
| 20260906061516 | 51 | 0.0 | 0.0 | 0.00 | 0.00 | 0.00 | 72 | 1023.4 | |
| 20260906061016 | 52 | 0.0 | 0.0 | 0.00 | 0.00 | 0.00 | 72 | 1023.4 | |
| 20260906060515 | 52 | 0.0 | 0.0 | 0.00 | 0.00 | 0.00 | 71 | 1023.3 | |
| 20260906060036 | 52 | 0.0 | 0.0 | 0.00 | 0.00 | 0.00 | 71 | 1023.3 | |
| 20260906055516 | 52 | 0.0 | 0.0 | 0.00 | 0.00 | 0.00 | 71 | 1023.2 | |
| 20260906055016 | 52 | 0.0 | 0.0 | 0.00 | 0.00 | 0.00 | 71 | 1023.1 | |
| 20260906054517 | 52 | 0.0 | 0.0 | 0.00 | 0.00 | 0.00 | 70 | 1023.1 | |
| 20260906054036 | 53 | 0.0 | 0.0 | 0.00 | 0.00 | 0.00 | 69 | 1023.2 | |
| 20260906053516 | 53 | 0.0 | 0.0 | 0.00 | 0.00 | 0.00 | 69 | 1023.3 | |
| 20260906053017 | 53 | 0.0 | 0.0 | 0.00 | 0.00 | 0.00 | 68 | 1023.2 | |
| 20260906052516 | 53 | 0.0 | 0.0 | 0.00 | 0.00 | 0.00 | 68 | 1023.2 | |
| 20260906052016 | 53 | 0.0 | 0.0 | 0.00 | 0.00 | 0.00 | 68 | 1023.1 | |
| 20260906051516 | 54 | 0.0 | 0.9 | 0.00 | 0.00 | 0.00 | 68 | 1023.2 | |
| 20260906051016 | 54 | 0.0 | 0.9 | 0.00 | 0.00 | 0.00 | 67 | 1023.2 | |
| 20260906050517 | 54 | 0.0 | 0.0 | 0.00 | 0.00 | 0.00 | 66 | 1023.1 | |
| 20260906050016 | 54 | 0.0 | 0.0 | 0.00 | 0.00 | 0.00 | 66 | 1023.0 | |
| 20260906045516 | 55 | 0.0 | 0.0 | 0.00 | 0.00 | 0.00 | 64 | 1023.0 | |
| 20260906045016 | 55 | 0.0 | 0.0 | 0.00 | 0.00 | 0.00 | 64 | 1023.1 | |
| 20260906044516 | 55 | 0.0 | 1.7 | 0.00 | 0.00 | 0.00 | 64 | 1023.2 | |
| 20260906044016 | 55 | 0.0 | 1.7 | 0.00 | 0.00 | 0.00 | 64 | 1023.1 | |
| 20260906043516 | 56 | 0.0 | 0.0 | 0.00 | 0.00 | 0.00 | 63 | 1023.1 | |
| 20260906043017 | 56 | 0.0 | 0.0 | 0.00 | 0.00 | 0.00 | 62 | 1022.9 | |
| 20260906042516 | 56 | 0.0 | 0.0 | 0.00 | 0.00 | 0.00 | 61 | 1023.1 | |
| 20260906042016 | 56 | 0.0 | 0.0 | 0.00 | 0.00 | 0.00 | 61 | 1022.9 | |
| 20260906041517 | 57 | 0.0 | 0.0 | 0.00 | 0.00 | 0.00 | 61 | 1022.9 | |
| 20260906041016 | 57 | 0.0 | 0.0 | 0.00 | 0.00 | 0.00 | 61 | 1022.8 | |
| 20260906040536 | 57 | 0.0 | 0.0 | 0.00 | 0.00 | 0.00 | 59 | 1022.6 | |
| 20260906040016 | 58 | 0.0 | 2.6 | 0.00 | 0.00 | 0.00 | 59 | 1022.6 | |
| 20260906035517 | 58 | 45 | 0.9 | 2.6 | 0.00 | 0.00 | 0.00 | 58 | 1022.6 |
| 20260906035016 | 58 | 0.0 | 1.7 | 0.00 | 0.00 | 0.00 | 57 | 1022.7 | |
| 20260906034516 | 59 | 270 | 0.9 | 1.7 | 0.00 | 0.00 | 0.00 | 57 | 1022.5 |
| 20260906034016 | 59 | 68 | 1.7 | 3.5 | 0.00 | 0.00 | 0.00 | 56 | 1022.6 |
| 20260906033516 | 60 | 68 | 0.9 | 3.5 | 0.00 | 0.00 | 0.00 | 56 | 1022.4 |
| 20260906033036 | 60 | 0.0 | 0.0 | 0.00 | 0.00 | 0.00 | 55 | 1022.6 | |
| 20260906032537 | 61 | 0.0 | 0.0 | 0.00 | 0.00 | 0.00 | 54 | 1022.4 | |
| 20260906032016 | 62 | 0.0 | 0.0 | 0.00 | 0.00 | 0.00 | 52 | 1022.4 | |
| 20260906031516 | 62 | 0.0 | 0.0 | 0.00 | 0.00 | 0.00 | 50 | 1022.4 | |
| 20260906031016 | 62 | 0.0 | 0.0 | 0.00 | 0.00 | 0.00 | 50 | 1022.2 | |
| 20260906030516 | 63 | 0.0 | 0.0 | 0.00 | 0.00 | 0.00 | 49 | 1022.1 | |
| 20260906030037 | 63 | 0.0 | 0.0 | 0.00 | 0.00 | 0.00 | 48 | 1022.1 | |
| 20260906025516 | 64 | 0.0 | 0.9 | 0.00 | 0.00 | 0.00 | 48 | 1022.0 | |
| 20260906025016 | 64 | 0.0 | 0.0 | 0.00 | 0.00 | 0.00 | 46 | 1022.0 | |
| 20260906024516 | 65 | 0.0 | 0.0 | 0.00 | 0.00 | 0.00 | 46 | 1021.9 | |
| 20260906024016 | 66 | 0.0 | 0.0 | 0.00 | 0.00 | 0.00 | 44 | 1021.9 | |
| 20260906023516 | 67 | 0.0 | 0.0 | 0.00 | 0.00 | 0.00 | 42 | 1021.9 | |
| 20260906023016 | 68 | 0.0 | 0.0 | 0.00 | 0.00 | 0.00 | 42 | 1021.7 | |
| 20260906022516 | 69 | 0.0 | 0.0 | 0.00 | 0.00 | 0.00 | 38 | 1021.6 | |
| 20260906022016 | 70 | 0.0 | 0.0 | 0.00 | 0.00 | 0.00 | 38 | 1021.5 | |
| 20260906021516 | 70 | 0.0 | 0.0 | 0.00 | 0.00 | 0.00 | 39 | 1021.4 | |
| 20260906021016 | 71 | 0.0 | 0.0 | 0.00 | 0.00 | 0.00 | 38 | 1021.4 | |
| 20260906020516 | 71 | 0.0 | 0.0 | 0.00 | 0.00 | 0.00 | 37 | 1021.3 | |
| 20260906020036 | 73 | 0.0 | 0.0 | 0.00 | 0.00 | 0.00 | 36 | 1021.3 | |
| 20260906015516 | 75 | 0.0 | 0.0 | 0.00 | 0.00 | 0.00 | 30 | 1021.2 | |
| 20260906015016 | 76 | 0.0 | 1.7 | 0.00 | 0.00 | 0.00 | 29 | 1021.1 | |
| 20260906014516 | 76 | 0 | 0.9 | 2.6 | 0.00 | 0.00 | 0.00 | 28 | 1021.2 |
| 20260906014016 | 77 | 0 | 0.9 | 2.6 | 0.00 | 0.00 | 0.00 | 28 | 1021.2 |
| 20260906013536 | 77 | 0 | 0.9 | 3.5 | 0.00 | 0.00 | 0.00 | 27 | 1021.0 |
| 20260906013016 | 78 | 338 | 0.9 | 2.6 | 0.00 | 0.00 | 0.00 | 27 | 1021.0 |
| 20260906012517 | 79 | 338 | 1.7 | 3.5 | 0.00 | 0.00 | 0.00 | 26 | 1021.1 |
| 20260906012036 | 79 | 0 | 1.7 | 3.5 | 0.00 | 0.00 | 0.00 | 26 | 1021.2 |
| 20260906011536 | 80 | 338 | 1.7 | 2.6 | 0.00 | 0.00 | 0.00 | 25 | 1021.2 |
| 20260906011015 | 80 | 0 | 1.7 | 2.6 | 0.00 | 0.00 | 0.00 | 25 | 1021.2 |
| 20260906010515 | 80 | 338 | 2.6 | 6.1 | 0.00 | 0.00 | 0.00 | 25 | 1021.2 |
| 20260906010015 | 80 | 270 | 2.6 | 6.1 | 0.00 | 0.00 | 0.00 | 25 | 1021.2 |
| 20260906005516 | 80 | 315 | 2.6 | 7.0 | 0.00 | 0.00 | 0.00 | 25 | 1021.2 |
| 20260906005015 | 81 | 0.0 | 5.2 | 0.00 | 0.00 | 0.00 | 26 | 1021.1 | |
| 20260906004516 | 81 | 0.0 | 0.0 | 0.00 | 0.00 | 0.00 | 25 | 1021.2 | |
| 20260906004015 | 81 | 0.0 | 0.0 | 0.00 | 0.00 | 0.00 | 26 | 1021.0 | |
| 20260906003516 | 81 | 0.0 | 0.0 | 0.00 | 0.00 | 0.00 | 26 | 1021.1 | |
| 20260906003016 | 81 | 0.0 | 0.0 | 0.00 | 0.00 | 0.00 | 23 | 1021.2 | |
| 20260906002515 | 81 | 0.0 | 0.9 | 0.00 | 0.00 | 0.00 | 23 | 1021.1 | |
| 20260906002016 | 82 | 180 | 0.9 | 2.6 | 0.00 | 0.00 | 0.00 | 23 | 1021.2 |
| 20260906001516 | 82 | 0.0 | 1.7 | 0.00 | 0.00 | 0.00 | 24 | 1021.2 | |
| 20260906001056 | 82 | 293 | 0.9 | 3.5 | 0.00 | 0.00 | 0.00 | 22 | 1021.1 |
| 20260906000515 | 82 | 0.0 | 3.5 | 0.00 | 0.00 | 0.00 | 25 | 1021.1 | |
| 20260906000015 | 82 | 0.0 | 1.7 | 0.00 | 0.00 | 0.00 | 24 | 1021.0 | |
| 20260905235516 | 83 | 0.0 | 3.5 | 0.00 | 0.00 | 0.00 | 24 | 1021.1 | |
| 20260905235036 | 83 | 293 | 0.9 | 5.2 | 0.00 | 0.00 | 0.00 | 22 | 1021.0 |
| 20260905234515 | 83 | 315 | 1.7 | 4.3 | 0.00 | 0.00 | 0.00 | 24 | 1021.1 |
| 20260905234015 | 83 | 315 | 1.7 | 4.3 | 0.00 | 0.00 | 0.00 | 24 | 1021.1 |
| 20260905233516 | 83 | 315 | 2.6 | 4.3 | 0.00 | 0.00 | 0.00 | 23 | 1021.2 |
| 20260905233015 | 83 | 270 | 1.7 | 7.0 | 0.00 | 0.00 | 0.00 | 25 | 1021.1 |
| 20260905232515 | 83 | 293 | 1.7 | 2.6 | 0.00 | 0.00 | 0.00 | 24 | 1021.1 |
| 20260905232015 | 83 | 293 | 1.7 | 6.1 | 0.00 | 0.00 | 0.00 | 24 | 1021.2 |
| 20260905231517 | 83 | 293 | 0.9 | 3.5 | 0.00 | 0.00 | 0.00 | 23 | 1021.1 |
| 20260905231015 | 83 | 293 | 3.5 | 7.8 | 0.00 | 0.00 | 0.00 | 22 | 1021.1 |
| 20260905230515 | 84 | 293 | 3.5 | 9.6 | 0.00 | 0.00 | 0.00 | 23 | 1021.1 |
| 20260905230015 | 84 | 293 | 4.3 | 10.4 | 0.00 | 0.00 | 0.00 | 23 | 1021.1 |
| 20260905225536 | 85 | 315 | 2.6 | 7.8 | 0.00 | 0.00 | 0.00 | 23 | 1021.2 |
| 20260905225035 | 84 | 270 | 1.7 | 7.0 | 0.00 | 0.00 | 0.00 | 23 | 1021.1 |
| 20260905224516 | 84 | 293 | 2.6 | 7.0 | 0.00 | 0.00 | 0.00 | 23 | 1021.1 |
| 20260905224056 | 84 | 293 | 2.6 | 6.1 | 0.00 | 0.00 | 0.00 | 23 | 1021.1 |
| 20260905223515 | 84 | 293 | 2.6 | 5.2 | 0.00 | 0.00 | 0.00 | 23 | 1021.2 |
| 20260905223015 | 84 | 45 | 1.7 | 3.5 | 0.00 | 0.00 | 0.00 | 23 | 1021.2 |
| 20260905222516 | 84 | 68 | 2.6 | 5.2 | 0.00 | 0.00 | 0.00 | 23 | 1021.3 |
| 20260905222016 | 84 | 225 | 2.6 | 5.2 | 0.00 | 0.00 | 0.00 | 22 | 1021.4 |
| 20260905221535 | 85 | 270 | 2.6 | 7.0 | 0.00 | 0.00 | 0.00 | 23 | 1021.4 |